createdAt,value
2022-12-15T00:02:19.475Z,96.44
2022-12-15T00:05:05.834Z,97.11
2022-12-15T00:07:52.285Z,97.21
2022-12-15T00:10:38.324Z,97.43
2022-12-15T00:13:31.127Z,97.62
2022-12-15T00:16:17.248Z,97.66
2022-12-15T00:19:02.742Z,97.21
2022-12-15T00:21:48.701Z,97.61
2022-12-15T00:24:34.404Z,97.41
2022-12-15T00:27:20.296Z,97.78
2022-12-15T00:30:05.979Z,97.58
2022-12-15T00:32:52.102Z,97.78
2022-12-15T00:35:38.150Z,97.89
2022-12-15T00:38:43.170Z,98.23
2022-12-15T00:41:15.263Z,97.57
2022-12-15T00:43:42.520Z,97.84
2022-12-15T00:46:28.277Z,97.44
2022-12-15T00:48:55.483Z,97.62
2022-12-15T00:51:22.799Z,97.58
2022-12-15T00:54:11.931Z,97.38
2022-12-15T00:57:01.776Z,97.96
2022-12-15T00:59:47.577Z,97.44
2022-12-15T01:02:33.588Z,97.81
2022-12-15T01:05:19.513Z,97.73
2022-12-15T01:08:05.063Z,97.69
2022-12-15T01:10:50.929Z,97.43
2022-12-15T01:13:36.465Z,97.72
2022-12-15T01:16:28.351Z,98.07
2022-12-15T01:19:13.986Z,97.82
2022-12-15T01:21:41.116Z,97.79
2022-12-15T01:24:08.232Z,97.71
2022-12-15T01:26:35.327Z,97.95
2022-12-15T01:29:02.307Z,97.84
2022-12-15T01:31:29.334Z,98.00
2022-12-15T01:33:56.391Z,97.81
2022-12-15T01:36:23.319Z,97.67
2022-12-15T01:38:54.049Z,97.79
2022-12-15T01:41:22.386Z,98.05
2022-12-15T01:43:49.922Z,97.89
2022-12-15T01:46:22.295Z,97.92
2022-12-15T01:48:55.228Z,98.13
2022-12-15T01:51:27.088Z,97.83
2022-12-15T01:54:21.040Z,98.03
2022-12-15T01:56:53.000Z,97.86
2022-12-15T01:59:27.301Z,98.07
2022-12-15T02:01:54.313Z,98.50
2022-12-15T02:04:23.833Z,97.76
2022-12-15T02:06:50.779Z,98.04
2022-12-15T02:09:19.386Z,98.21
2022-12-15T02:12:13.790Z,97.63
2022-12-15T02:14:55.798Z,97.78
2022-12-15T02:17:28.505Z,98.79
2022-12-15T02:20:01.466Z,98.71
2022-12-15T02:22:33.374Z,98.56
2022-12-15T02:25:32.475Z,98.99
2022-12-15T02:28:06.585Z,99.00
2022-12-15T02:30:36.414Z,99.62
2022-12-15T02:33:27.618Z,99.21
2022-12-15T02:36:06.198Z,99.97
2022-12-15T02:38:37.216Z,99.74
2022-12-15T02:41:06.698Z,99.67
2022-12-15T02:43:38.951Z,100.00
2022-12-15T02:46:08.821Z,99.80
2022-12-15T02:49:09.980Z,100.00
2022-12-15T02:51:54.634Z,100.00
2022-12-15T02:54:24.708Z,100.00
2022-12-15T02:56:51.575Z,100.00
2022-12-15T02:59:38.520Z,100.00
2022-12-15T03:02:08.974Z,100.00
2022-12-15T03:04:36.274Z,100.00
2022-12-15T03:07:09.549Z,100.00
2022-12-15T03:09:36.651Z,100.00
2022-12-15T03:12:05.516Z,100.00
2022-12-15T03:14:32.572Z,100.00
2022-12-15T03:16:59.593Z,100.00
2022-12-15T03:19:26.847Z,100.00
2022-12-15T03:21:53.911Z,100.00
2022-12-15T03:24:20.865Z,100.00
2022-12-15T03:26:50.226Z,100.00
2022-12-15T03:29:18.273Z,100.00
2022-12-15T03:31:45.735Z,100.00
2022-12-15T03:34:17.189Z,100.00
2022-12-15T03:36:44.409Z,100.00
2022-12-15T03:39:11.519Z,100.00
2022-12-15T03:41:38.729Z,100.00
2022-12-15T03:44:06.046Z,100.00
2022-12-15T03:46:35.726Z,100.00
2022-12-15T03:49:02.978Z,100.00
2022-12-15T03:51:30.557Z,100.00
2022-12-15T03:53:59.143Z,100.00
2022-12-15T03:56:26.245Z,100.00
2022-12-15T03:58:53.412Z,100.00
2022-12-15T04:01:29.906Z,100.00
2022-12-15T04:04:01.106Z,100.00
2022-12-15T04:06:31.767Z,100.00
2022-12-15T04:08:59.260Z,100.00
2022-12-15T04:11:26.427Z,100.00
2022-12-15T04:13:53.553Z,100.00
2022-12-15T04:16:20.830Z,100.00
2022-12-15T04:19:08.533Z,100.00
2022-12-15T04:21:35.485Z,100.00
2022-12-15T04:24:20.836Z,100.00
2022-12-15T04:27:06.502Z,99.59
2022-12-15T04:29:52.342Z,99.33
2022-12-15T04:32:37.760Z,98.60
2022-12-15T04:35:23.794Z,97.28
2022-12-15T04:38:09.460Z,97.14
2022-12-15T04:40:55.016Z,96.86
2022-12-15T04:43:40.451Z,96.01
2022-12-15T04:46:26.149Z,95.51
2022-12-15T04:49:11.779Z,94.70
2022-12-15T04:51:57.550Z,94.81
2022-12-15T04:54:43.150Z,95.39
2022-12-15T04:57:28.964Z,95.53
2022-12-15T05:00:15.639Z,95.72
2022-12-15T05:03:01.383Z,96.48
2022-12-15T05:05:47.730Z,96.41
2022-12-15T05:08:33.477Z,97.26
2022-12-15T05:11:19.493Z,97.85
2022-12-15T05:14:05.281Z,97.46
2022-12-15T05:16:50.831Z,97.69
2022-12-15T05:19:40.123Z,98.45
2022-12-15T05:22:25.733Z,99.07
2022-12-15T05:25:14.031Z,99.00
2022-12-15T05:27:59.828Z,99.34
2022-12-15T05:30:45.604Z,98.96
2022-12-15T05:33:12.675Z,100.00
2022-12-15T05:35:39.673Z,99.30
2022-12-15T05:38:06.915Z,100.00
2022-12-15T05:40:33.959Z,99.90
2022-12-15T05:43:01.252Z,100.00
2022-12-15T05:45:28.556Z,100.00
2022-12-15T05:47:55.609Z,100.00
2022-12-15T05:50:23.485Z,100.00
2022-12-15T05:52:50.471Z,100.00
2022-12-15T05:55:19.129Z,100.00
2022-12-15T05:57:53.684Z,100.00
2022-12-15T06:00:21.390Z,100.00
2022-12-15T06:02:48.694Z,100.00
2022-12-15T06:05:18.039Z,100.00
2022-12-15T06:07:50.065Z,100.00
2022-12-15T06:10:20.476Z,100.00
2022-12-15T06:12:48.091Z,100.00
2022-12-15T06:15:15.096Z,100.00
2022-12-15T06:17:42.732Z,100.00
2022-12-15T06:20:10.246Z,100.00
2022-12-15T06:22:37.407Z,100.00
2022-12-15T06:25:04.909Z,100.00
2022-12-15T06:27:32.223Z,100.00
2022-12-15T06:29:59.231Z,100.00
2022-12-15T06:32:26.330Z,100.00
2022-12-15T06:34:53.345Z,100.00
2022-12-15T06:37:20.470Z,100.00
2022-12-15T06:39:47.471Z,100.00
2022-12-15T06:42:14.766Z,100.00
2022-12-15T06:44:41.737Z,100.00
2022-12-15T06:47:08.817Z,100.00
2022-12-15T06:49:35.779Z,100.00
2022-12-15T06:52:02.772Z,100.00
2022-12-15T06:54:29.952Z,100.00
2022-12-15T06:56:57.172Z,100.00
2022-12-15T06:59:24.266Z,100.00
2022-12-15T07:01:51.520Z,100.00
2022-12-15T07:04:18.822Z,100.00
2022-12-15T07:06:45.937Z,100.00
2022-12-15T07:09:16.297Z,100.00
2022-12-15T07:11:44.621Z,100.00
2022-12-15T07:14:11.719Z,100.00
2022-12-15T07:16:39.343Z,100.00
2022-12-15T07:19:06.396Z,100.00
2022-12-15T07:21:33.458Z,100.00
2022-12-15T07:24:01.491Z,100.00
2022-12-15T07:26:29.205Z,100.00
2022-12-15T07:28:56.303Z,100.00
2022-12-15T07:31:24.328Z,100.00
2022-12-15T07:33:52.866Z,100.00
2022-12-15T07:36:20.756Z,100.00
2022-12-15T07:38:50.627Z,100.00
2022-12-15T07:41:18.447Z,98.71
2022-12-15T07:43:46.733Z,99.52
2022-12-15T07:46:14.107Z,98.18
2022-12-15T07:48:41.227Z,98.11
2022-12-15T07:51:15.302Z,98.45
2022-12-15T07:56:26.374Z,98.48
2022-12-15T07:58:53.758Z,97.83
2022-12-15T08:01:21.167Z,98.23
2022-12-15T08:03:49.238Z,97.30
2022-12-15T08:06:16.648Z,97.42
2022-12-15T08:08:51.088Z,97.02
2022-12-15T08:11:21.174Z,97.28
2022-12-15T08:14:06.987Z,95.73
2022-12-15T08:16:36.976Z,94.25
2022-12-15T08:19:05.756Z,93.66
2022-12-15T08:21:33.980Z,92.74
2022-12-15T08:24:01.203Z,92.27
2022-12-15T08:26:31.037Z,91.35
2022-12-15T08:29:32.099Z,90.65
2022-12-15T08:31:51.532Z,90.93
2022-12-15T08:34:18.700Z,91.36
2022-12-15T08:36:45.755Z,91.07
2022-12-15T08:39:12.849Z,91.50
2022-12-15T08:41:41.334Z,92.78
2022-12-15T08:44:08.486Z,91.77
2022-12-15T08:46:39.860Z,91.75
2022-12-15T08:49:10.783Z,92.30
2022-12-15T08:51:37.914Z,91.52
2022-12-15T08:54:05.249Z,91.10
2022-12-15T08:56:32.674Z,91.19
2022-12-15T08:59:03.355Z,91.02
2022-12-15T09:01:39.619Z,91.68
2022-12-15T09:04:07.057Z,91.35
2022-12-15T09:06:45.056Z,91.06
2022-12-15T09:09:17.845Z,90.37
2022-12-15T09:11:44.883Z,90.13
2022-12-15T09:14:11.882Z,90.34
2022-12-15T09:16:38.989Z,90.89
2022-12-15T09:19:06.226Z,91.07
2022-12-15T09:21:33.274Z,90.55
2022-12-15T09:24:02.624Z,90.82
2022-12-15T09:26:31.770Z,91.46
2022-12-15T09:28:59.272Z,90.52
2022-12-15T09:31:34.072Z,90.59
2022-12-15T09:34:01.842Z,90.21
2022-12-15T09:36:31.223Z,90.71
2022-12-15T09:39:02.986Z,90.90
2022-12-15T09:41:36.652Z,90.93
2022-12-15T09:44:18.090Z,90.49
2022-12-15T09:47:09.782Z,90.40
2022-12-15T09:49:39.879Z,89.54
2022-12-15T09:52:12.714Z,89.82
2022-12-15T09:54:44.055Z,89.22
2022-12-15T09:57:34.522Z,88.03
2022-12-15T10:00:16.190Z,87.59
2022-12-15T10:03:10.050Z,87.30
2022-12-15T10:06:14.513Z,86.23
2022-12-15T10:08:41.009Z,85.84
2022-12-15T10:11:36.205Z,85.25
2022-12-15T10:14:28.234Z,85.82
2022-12-15T10:17:14.224Z,85.25
2022-12-15T10:20:02.580Z,84.35
2022-12-15T10:22:34.136Z,84.58
2022-12-15T10:25:15.570Z,84.32
2022-12-15T10:27:51.675Z,84.12
2022-12-15T10:30:19.544Z,84.74
2022-12-15T10:33:07.911Z,85.60
2022-12-15T10:35:37.166Z,85.45
2022-12-15T10:38:06.598Z,85.78
2022-12-15T10:40:51.099Z,86.33
2022-12-15T10:43:37.182Z,86.56
2022-12-15T10:46:25.248Z,87.56
2022-12-15T10:48:54.283Z,87.86
2022-12-15T10:51:31.813Z,88.69
2022-12-15T10:54:02.033Z,89.17
2022-12-15T10:59:31.872Z,89.53
2022-12-15T11:02:23.957Z,90.09
2022-12-15T11:05:15.692Z,90.09
2022-12-15T11:07:45.812Z,90.73
2022-12-15T11:10:25.407Z,89.83
2022-12-15T11:12:58.891Z,90.60
2022-12-15T11:15:32.046Z,90.96
2022-12-15T11:18:05.929Z,90.80
2022-12-15T11:20:37.551Z,91.50
2022-12-15T11:23:09.015Z,91.61
2022-12-15T11:25:45.276Z,91.61
2022-12-15T11:28:34.781Z,92.58
2022-12-15T11:31:14.343Z,92.22
2022-12-15T11:33:41.754Z,92.57
2022-12-15T11:36:44.030Z,92.49
2022-12-15T11:39:45.805Z,91.94
2022-12-15T11:42:23.646Z,92.52
2022-12-15T11:45:13.821Z,92.88
2022-12-15T11:47:46.324Z,93.47
2022-12-15T11:50:33.441Z,92.65
2022-12-15T11:53:34.847Z,92.90
2022-12-15T11:56:11.178Z,92.82
2022-12-15T11:59:02.889Z,93.63
2022-12-15T12:02:02.969Z,93.55
2022-12-15T12:04:53.896Z,93.06
2022-12-15T12:07:38.462Z,93.20
2022-12-15T12:10:27.013Z,93.34
2022-12-15T12:13:09.906Z,94.00
2022-12-15T12:15:58.890Z,93.60
2022-12-15T12:18:32.865Z,93.43
2022-12-15T12:21:25.998Z,92.77
2022-12-15T12:24:11.854Z,93.76
2022-12-15T12:26:52.356Z,93.04
2022-12-15T12:29:25.756Z,93.76
2022-12-15T12:32:12.850Z,94.31
2022-12-15T12:34:52.515Z,94.44
2022-12-15T12:37:49.940Z,93.64
2022-12-15T12:40:49.122Z,93.77
2022-12-15T12:43:43.895Z,94.60
2022-12-15T12:46:20.583Z,94.47
2022-12-15T12:49:11.645Z,94.01
2022-12-15T12:51:55.075Z,94.64
2022-12-15T12:54:34.516Z,93.87
2022-12-15T12:57:23.597Z,95.17
2022-12-15T13:00:01.086Z,94.74
2022-12-15T13:02:31.011Z,95.44
2022-12-15T13:05:00.227Z,94.24
2022-12-15T13:07:35.193Z,95.29
2022-12-15T13:10:08.326Z,95.09
2022-12-15T13:12:55.576Z,94.29
2022-12-15T13:15:31.554Z,94.99
2022-12-15T13:18:07.616Z,94.93
2022-12-15T13:20:38.151Z,95.60
2022-12-15T13:23:23.923Z,94.57
2022-12-15T13:25:57.129Z,95.15
2022-12-15T13:28:36.458Z,94.69
2022-12-15T13:31:19.371Z,93.86
2022-12-15T13:34:01.334Z,93.59
2022-12-15T13:36:37.524Z,94.40
2022-12-15T13:39:16.744Z,94.70
2022-12-15T13:42:15.088Z,94.22
2022-12-15T13:44:41.401Z,93.32
2022-12-15T13:47:30.181Z,93.37
2022-12-15T13:50:28.844Z,92.93
2022-12-15T13:53:18.265Z,92.81
2022-12-15T13:55:55.208Z,93.39
2022-12-15T13:58:24.407Z,93.15
2022-12-15T14:00:56.710Z,91.68
2022-12-15T14:03:24.791Z,92.43
2022-12-15T14:05:59.378Z,91.69
2022-12-15T14:08:30.109Z,91.77
2022-12-15T14:11:22.246Z,91.32
2022-12-15T14:13:54.358Z,91.82
2022-12-15T14:16:26.827Z,91.97
2022-12-15T14:19:16.254Z,90.10
2022-12-15T14:22:27.125Z,90.86
2022-12-15T14:25:04.909Z,90.80
2022-12-15T14:27:33.589Z,90.49
2022-12-15T14:30:33.186Z,90.52
2022-12-15T14:33:12.796Z,90.26
2022-12-15T14:35:51.112Z,89.97
2022-12-15T14:38:28.311Z,89.47
2022-12-15T14:40:58.224Z,90.13
2022-12-15T14:43:30.344Z,89.45
2022-12-15T14:46:08.856Z,89.84
2022-12-15T14:48:44.404Z,88.86
2022-12-15T14:51:16.235Z,89.70
2022-12-15T14:53:49.640Z,88.93
2022-12-15T14:56:24.164Z,89.59
2022-12-15T14:59:20.954Z,89.59
2022-12-15T15:01:58.726Z,89.06
2022-12-15T15:03:11.972Z,89.69
2022-12-15T15:04:30.574Z,88.37
2022-12-15T15:07:04.648Z,89.02
2022-12-15T15:09:42.002Z,88.48
2022-12-15T15:12:15.416Z,88.57
2022-12-15T15:14:46.318Z,88.53
2022-12-15T15:17:13.384Z,88.05
2022-12-15T15:20:16.008Z,88.88
2022-12-15T15:22:45.628Z,89.58
2022-12-15T15:25:40.753Z,89.96
2022-12-15T15:28:20.514Z,90.38
2022-12-15T15:30:56.678Z,90.48
2022-12-15T15:33:25.379Z,89.86
2022-12-15T15:35:55.731Z,90.25
2022-12-15T15:38:35.483Z,91.35
2022-12-15T15:41:16.250Z,90.82
2022-12-15T15:43:44.760Z,91.32
2022-12-15T15:46:18.426Z,91.80
2022-12-15T15:48:50.587Z,92.01
2022-12-15T15:51:18.995Z,92.01
2022-12-15T15:53:47.096Z,92.12
2022-12-15T15:56:18.275Z,91.84
2022-12-15T15:58:47.643Z,92.65
2022-12-15T16:01:14.673Z,93.05
2022-12-15T16:03:42.005Z,92.61
2022-12-15T16:06:20.792Z,93.58
2022-12-15T16:08:52.338Z,92.96
2022-12-15T16:11:21.349Z,92.99
2022-12-15T16:13:48.939Z,92.84
2022-12-15T16:16:20.128Z,92.54
2022-12-15T16:18:47.939Z,93.24
2022-12-15T16:21:16.827Z,92.86
2022-12-15T16:23:46.595Z,92.91
2022-12-15T16:26:33.672Z,93.33
2022-12-15T16:29:00.775Z,94.21
2022-12-15T16:31:40.924Z,93.28
2022-12-15T16:34:08.985Z,94.50
2022-12-15T16:36:36.670Z,94.34
2022-12-15T16:39:04.737Z,94.51
2022-12-15T16:41:33.128Z,94.26
2022-12-15T16:44:00.260Z,94.47
2022-12-15T16:46:27.307Z,94.88
2022-12-15T16:48:54.891Z,94.36
2022-12-15T16:51:43.867Z,95.22
2022-12-15T16:54:18.173Z,94.60
2022-12-15T16:56:45.468Z,95.35
2022-12-15T16:59:34.601Z,94.92
2022-12-15T17:02:28.143Z,95.15
2022-12-15T17:04:56.106Z,95.45
2022-12-15T17:07:26.551Z,95.21
2022-12-15T17:09:53.895Z,95.23
2022-12-15T17:12:20.938Z,95.62
2022-12-15T17:14:48.254Z,95.69
2022-12-15T17:17:17.997Z,95.40
2022-12-15T17:20:11.847Z,96.22
2022-12-15T17:22:33.551Z,96.72
2022-12-15T17:25:00.675Z,96.04
2022-12-15T17:27:29.792Z,96.64
2022-12-15T17:29:59.680Z,95.77
2022-12-15T17:32:26.918Z,97.01
2022-12-15T17:34:53.968Z,96.18
2022-12-15T17:37:21.189Z,96.04
2022-12-15T17:39:51.532Z,95.98
2022-12-15T17:42:20.697Z,95.84
2022-12-15T17:44:48.966Z,96.79
2022-12-15T17:47:18.834Z,97.30
2022-12-15T17:49:47.470Z,97.37
2022-12-15T17:52:30.474Z,97.31
2022-12-15T17:54:58.023Z,96.39
2022-12-15T17:57:25.745Z,97.34
2022-12-15T17:59:53.364Z,96.72
2022-12-15T18:02:20.560Z,97.02
2022-12-15T18:04:47.755Z,97.22
2022-12-15T18:07:23.579Z,97.95
2022-12-15T18:09:52.338Z,96.78
2022-12-15T18:12:25.208Z,97.79
2022-12-15T18:14:53.113Z,97.33
2022-12-15T18:17:21.044Z,98.11
2022-12-15T18:19:48.619Z,97.59
2022-12-15T18:22:22.947Z,97.31
2022-12-15T18:24:53.156Z,98.30
2022-12-15T18:27:25.003Z,97.37
2022-12-15T18:29:52.448Z,97.87
2022-12-15T18:32:22.793Z,98.00
2022-12-15T18:34:50.761Z,96.91
2022-12-15T18:37:19.558Z,96.93
2022-12-15T18:39:47.398Z,97.17
2022-12-15T18:42:17.804Z,97.60
2022-12-15T18:44:50.730Z,97.55
2022-12-15T18:47:20.307Z,97.09
2022-12-15T18:49:47.631Z,96.54
2022-12-15T18:52:20.878Z,96.77
2022-12-15T18:54:49.537Z,96.79
2022-12-15T18:57:33.594Z,96.91
2022-12-15T19:00:12.793Z,97.12
2022-12-15T19:02:41.056Z,96.57
2022-12-15T19:05:27.784Z,96.90
2022-12-15T19:08:11.251Z,96.68
2022-12-15T19:10:44.249Z,96.54
2022-12-15T19:13:15.602Z,96.71
2022-12-15T19:15:43.393Z,96.66
2022-12-15T19:18:34.513Z,96.78
2022-12-15T19:21:32.728Z,97.25
2022-12-15T19:24:00.234Z,97.17
2022-12-15T19:26:27.401Z,97.36
2022-12-15T19:28:54.773Z,97.76
2022-12-15T19:31:22.507Z,97.88
2022-12-15T19:33:49.456Z,97.90
2022-12-15T19:36:25.403Z,97.61
2022-12-15T19:38:55.457Z,97.15
2022-12-15T19:41:22.517Z,97.17
2022-12-15T19:43:49.569Z,96.64
2022-12-15T19:46:22.077Z,97.29
2022-12-15T19:48:49.177Z,96.52
2022-12-15T19:51:18.762Z,96.62
2022-12-15T19:53:47.665Z,96.66
2022-12-15T19:56:19.600Z,96.10
2022-12-15T19:58:48.223Z,96.07
2022-12-15T20:01:18.081Z,96.05
2022-12-15T20:03:48.694Z,95.29
2022-12-15T20:06:17.884Z,95.39
2022-12-15T20:08:50.250Z,95.18
2022-12-15T20:11:26.028Z,95.20
2022-12-15T20:13:54.377Z,95.84
2022-12-15T20:16:21.638Z,95.63
2022-12-15T20:18:51.084Z,95.75
2022-12-15T20:21:22.260Z,95.89
2022-12-15T20:23:52.760Z,96.75
2022-12-15T20:26:20.068Z,96.83
2022-12-15T20:28:47.408Z,96.78
2022-12-15T20:31:17.055Z,96.78
2022-12-15T20:33:45.021Z,96.88
2022-12-15T20:36:22.469Z,97.28
2022-12-15T20:38:50.785Z,96.80
2022-12-15T20:41:22.221Z,97.62
2022-12-15T20:43:50.364Z,96.84
2022-12-15T20:46:35.765Z,96.30
2022-12-15T20:49:03.236Z,96.46
2022-12-15T20:51:32.821Z,96.47
2022-12-15T20:54:02.314Z,95.98
2022-12-15T20:56:29.359Z,95.68
2022-12-15T20:58:58.186Z,95.14
2022-12-15T21:01:27.669Z,95.51
2022-12-15T21:03:57.072Z,95.29
2022-12-15T21:06:25.522Z,94.32
2022-12-15T21:08:52.839Z,94.31
2022-12-15T21:11:21.362Z,94.24
2022-12-15T21:13:50.065Z,95.22
2022-12-15T21:16:20.042Z,94.66
2022-12-15T21:19:19.897Z,94.79
2022-12-15T21:21:38.205Z,95.15
2022-12-15T21:24:16.774Z,95.24
2022-12-15T21:26:44.009Z,94.71
2022-12-15T21:29:15.905Z,95.37
2022-12-15T21:31:43.754Z,95.31
2022-12-15T21:34:11.120Z,95.04
2022-12-15T21:36:40.525Z,95.53
2022-12-15T21:39:11.781Z,95.63
2022-12-15T21:41:43.101Z,95.23
2022-12-15T21:44:14.436Z,95.81
2022-12-15T21:46:41.936Z,96.87
2022-12-15T21:49:20.677Z,96.24
2022-12-15T21:51:52.588Z,96.51
2022-12-15T21:54:31.386Z,96.74
2022-12-15T21:57:02.879Z,96.69
2022-12-15T21:59:32.358Z,97.02
2022-12-15T22:02:24.351Z,97.37
2022-12-15T22:04:52.066Z,97.50
2022-12-15T22:07:19.319Z,97.17
2022-12-15T22:09:46.358Z,97.59
2022-12-15T22:12:20.713Z,97.68
2022-12-15T22:14:48.061Z,97.20
2022-12-15T22:17:20.383Z,97.11
2022-12-15T22:19:47.913Z,97.02
2022-12-15T22:22:15.641Z,96.26
2022-12-15T22:24:43.134Z,96.11
2022-12-15T22:27:20.687Z,96.53
2022-12-15T22:29:49.038Z,96.77
2022-12-15T22:32:17.007Z,96.19
2022-12-15T22:34:44.088Z,96.18
2022-12-15T22:37:11.179Z,95.36
2022-12-15T22:39:38.205Z,95.89
2022-12-15T22:42:06.115Z,95.14
2022-12-15T22:44:37.435Z,95.38
2022-12-15T22:47:06.744Z,94.92
2022-12-15T22:49:39.729Z,95.04
2022-12-15T22:52:16.332Z,94.85
2022-12-15T22:54:45.974Z,94.52
2022-12-15T22:57:23.200Z,94.51
2022-12-15T23:00:07.389Z,94.87
2022-12-15T23:02:39.004Z,94.89
2022-12-15T23:05:06.831Z,95.10
2022-12-15T23:07:35.712Z,94.42
2022-12-15T23:10:22.949Z,94.88
2022-12-15T23:12:54.440Z,95.64
2022-12-15T23:15:45.629Z,95.19
2022-12-15T23:18:13.713Z,95.37
2022-12-15T23:20:41.336Z,95.68
2022-12-15T23:23:10.007Z,95.98
2022-12-15T23:25:37.071Z,94.93
2022-12-15T23:28:05.471Z,95.24
2022-12-15T23:30:32.772Z,95.97
2022-12-15T23:33:00.130Z,95.87
2022-12-15T23:35:27.191Z,95.57
2022-12-15T23:37:54.207Z,95.35
2022-12-15T23:40:22.595Z,96.33
2022-12-15T23:42:50.597Z,95.27
2022-12-15T23:45:19.071Z,95.61
2022-12-15T23:47:46.331Z,95.94
2022-12-15T23:50:14.086Z,96.20
2022-12-15T23:52:41.506Z,95.47
2022-12-15T23:55:11.274Z,95.06
2022-12-15T23:57:39.513Z,95.65
